createdAt,value
2018-04-24T00:01:30.012Z,9.07
2018-04-24T00:03:57.639Z,9.93
2018-04-24T00:06:25.129Z,7.90
2018-04-24T00:08:52.684Z,9.10
2018-04-24T00:11:20.244Z,10.13
2018-04-24T00:13:47.791Z,5.20
2018-04-24T00:16:15.373Z,8.57
2018-04-24T00:18:42.986Z,6.80
2018-04-24T00:21:10.571Z,4.07
2018-04-24T00:23:38.144Z,10.93
2018-04-24T00:26:05.725Z,5.40
2018-04-24T00:28:33.248Z,8.87
2018-04-24T00:31:00.839Z,7.30
2018-04-24T00:33:28.381Z,5.97
2018-04-24T00:35:55.943Z,5.80
2018-04-24T00:38:23.516Z,5.73
2018-04-24T00:40:51.076Z,9.43
2018-04-24T00:43:18.632Z,7.77
2018-04-24T00:45:46.308Z,6.03
2018-04-24T00:48:14.744Z,5.07
2018-04-24T00:50:42.349Z,5.00
2018-04-24T00:53:21.915Z,7.17
2018-04-24T00:55:50.269Z,4.93
2018-04-24T00:58:17.819Z,6.30
2018-04-24T01:00:45.379Z,4.73
2018-04-24T01:03:12.952Z,7.07
2018-04-24T01:05:40.511Z,5.17
2018-04-24T01:08:09.674Z,10.27
2018-04-24T01:10:37.231Z,5.70
2018-04-24T01:13:04.813Z,4.43
2018-04-24T01:15:32.364Z,5.97
2018-04-24T01:17:59.925Z,8.97
2018-04-24T01:20:27.476Z,5.30
2018-04-24T01:22:55.054Z,5.70
2018-04-24T01:25:22.619Z,6.23
2018-04-24T01:27:50.212Z,6.60
2018-04-24T01:30:18.531Z,6.27
2018-04-24T01:32:46.156Z,5.30
2018-04-24T01:35:14.504Z,7.10
2018-04-24T01:37:42.068Z,5.53
2018-04-24T01:40:09.665Z,6.13
2018-04-24T01:42:37.983Z,9.43
2018-04-24T01:45:05.543Z,9.57
2018-04-24T01:47:33.101Z,6.40
2018-04-24T01:50:00.769Z,5.43
2018-04-24T01:52:28.325Z,6.57
2018-04-24T01:54:55.887Z,7.03
2018-04-24T01:57:23.437Z,7.40
2018-04-24T01:59:51.010Z,7.63
2018-04-24T02:02:18.557Z,8.00
2018-04-24T02:04:46.126Z,8.17
2018-04-24T02:07:14.803Z,8.67
2018-04-24T02:09:42.470Z,11.73
2018-04-24T02:12:10.013Z,7.87
2018-04-24T02:14:37.552Z,7.90
2018-04-24T02:17:05.115Z,9.10
2018-04-24T02:19:32.683Z,6.93
2018-04-24T02:22:00.392Z,11.00
2018-04-24T02:24:27.964Z,8.00
2018-04-24T02:26:55.570Z,11.47
2018-04-24T02:29:23.122Z,8.03
2018-04-24T02:31:50.696Z,11.20
2018-04-24T02:34:18.263Z,11.43
2018-04-24T02:36:45.847Z,11.93
2018-04-24T02:39:13.391Z,9.50
2018-04-24T02:41:40.961Z,11.43
2018-04-24T02:44:08.520Z,11.17
2018-04-24T02:46:36.092Z,10.57
2018-04-24T02:49:03.640Z,6.27
2018-04-24T02:51:31.213Z,7.03
2018-04-24T02:53:58.768Z,9.80
2018-04-24T02:56:26.326Z,8.00
2018-04-24T02:58:53.867Z,6.53
2018-04-24T03:01:21.448Z,7.63
2018-04-24T03:03:48.984Z,6.13
2018-04-24T03:06:16.578Z,9.23
2018-04-24T03:08:44.132Z,9.40
2018-04-24T03:11:11.711Z,7.83
2018-04-24T03:13:40.035Z,7.40
2018-04-24T03:16:07.597Z,11.90
2018-04-24T03:18:35.188Z,8.60
2018-04-24T03:21:02.907Z,7.20
2018-04-24T03:23:30.463Z,9.17
2018-04-24T03:25:58.032Z,7.37
2018-04-24T03:28:25.586Z,6.97
2018-04-24T03:30:53.143Z,9.17
2018-04-24T03:33:20.715Z,8.03
2018-04-24T03:35:48.272Z,6.93
2018-04-24T03:38:15.844Z,7.73
2018-04-24T03:40:43.393Z,8.77
2018-04-24T03:43:10.999Z,8.87
2018-04-24T03:45:38.611Z,8.47
2018-04-24T03:48:06.181Z,6.47
2018-04-24T03:50:33.729Z,7.30
2018-04-24T03:53:01.297Z,6.93
2018-04-24T03:55:28.836Z,9.47
2018-04-24T03:57:56.415Z,7.77
2018-04-24T04:00:23.970Z,8.27
2018-04-24T04:02:51.530Z,7.17
2018-04-24T04:05:19.097Z,9.80
2018-04-24T04:07:46.673Z,6.20
2018-04-24T04:10:14.236Z,8.63
2018-04-24T04:12:41.783Z,8.00
2018-04-24T04:15:09.369Z,7.30
2018-04-24T04:17:48.804Z,8.43
2018-04-24T04:20:28.319Z,7.87
2018-04-24T04:23:08.320Z,7.10
2018-04-24T04:25:36.712Z,9.17
2018-04-24T04:28:05.064Z,4.43
2018-04-24T04:30:34.252Z,6.07
2018-04-24T04:33:02.006Z,4.43
2018-04-24T04:35:29.685Z,5.73
2018-04-24T04:37:57.226Z,6.90
2018-04-24T04:40:24.872Z,8.00
2018-04-24T04:42:52.407Z,4.23
2018-04-24T04:45:19.957Z,6.70
2018-04-24T04:47:48.340Z,5.23
2018-04-24T04:50:15.840Z,6.83
2018-04-24T04:52:43.404Z,6.50
2018-04-24T04:55:11.090Z,9.37
2018-04-24T04:57:38.659Z,6.00
2018-04-24T05:00:06.375Z,8.83
2018-04-24T05:02:33.928Z,7.53
2018-04-24T05:05:01.505Z,6.57
2018-04-24T05:07:29.076Z,6.57
2018-04-24T05:09:56.708Z,5.23
2018-04-24T05:12:24.299Z,6.60
2018-04-24T05:14:51.894Z,6.17
2018-04-24T05:17:20.414Z,6.97
2018-04-24T05:19:48.077Z,5.20
2018-04-24T05:22:15.683Z,6.20
2018-04-24T05:24:43.237Z,6.97
2018-04-24T05:27:10.879Z,6.13
2018-04-24T05:29:38.653Z,6.53
2018-04-24T05:32:06.211Z,9.73
2018-04-24T05:34:33.861Z,6.73
2018-04-24T05:37:01.464Z,6.30
2018-04-24T05:39:29.048Z,5.57
2018-04-24T05:41:56.605Z,9.30
2018-04-24T05:44:24.962Z,4.77
2018-04-24T05:46:52.608Z,6.23
2018-04-24T05:49:20.198Z,5.57
2018-04-24T05:51:48.638Z,8.27
2018-04-24T05:54:16.267Z,6.00
2018-04-24T05:56:43.816Z,6.17
2018-04-24T05:59:11.392Z,5.97
2018-04-24T06:01:39.001Z,6.67
2018-04-24T06:04:06.609Z,5.53
2018-04-24T06:06:34.179Z,4.40
2018-04-24T06:09:01.846Z,5.13
2018-04-24T06:11:29.405Z,7.30
2018-04-24T06:13:56.964Z,6.57
2018-04-24T06:16:24.532Z,5.50
2018-04-24T06:18:52.071Z,7.97
2018-04-24T06:21:19.639Z,7.37
2018-04-24T06:23:47.403Z,7.10
2018-04-24T06:26:15.053Z,4.53
2018-04-24T06:28:42.610Z,5.87
2018-04-24T06:31:10.190Z,7.10
2018-04-24T06:33:37.836Z,4.30
2018-04-24T06:36:05.618Z,7.57
2018-04-24T06:38:33.099Z,4.73
2018-04-24T06:41:00.691Z,6.20
2018-04-24T06:43:29.012Z,7.50
2018-04-24T06:45:56.611Z,5.87
2018-04-24T06:48:24.163Z,7.53
2018-04-24T06:50:51.775Z,6.67
2018-04-24T06:53:19.368Z,6.03
2018-04-24T06:55:47.024Z,4.50
2018-04-24T06:58:14.658Z,5.87
2018-04-24T07:00:42.286Z,8.63
2018-04-24T07:03:09.912Z,7.43
2018-04-24T07:05:37.463Z,7.57
2018-04-24T07:08:05.026Z,6.57
2018-04-24T07:10:32.578Z,7.60
2018-04-24T07:13:00.205Z,7.10
2018-04-24T07:15:28.530Z,6.40
2018-04-24T07:17:56.099Z,6.00
2018-04-24T07:20:23.668Z,6.30
2018-04-24T07:22:51.236Z,7.97
2018-04-24T07:25:18.846Z,8.50
2018-04-24T07:27:46.410Z,5.37
2018-04-24T07:30:13.988Z,6.40
2018-04-24T07:32:41.642Z,12.20
2018-04-24T07:35:09.201Z,4.23
2018-04-24T07:37:36.769Z,7.67
2018-04-24T07:40:04.423Z,14.10
2018-04-24T07:42:31.975Z,6.00
2018-04-24T07:44:59.553Z,6.50
2018-04-24T07:47:27.092Z,7.63
2018-04-24T07:49:54.651Z,7.03
2018-04-24T07:52:22.218Z,5.07
2018-04-24T07:54:49.798Z,8.63
2018-04-24T07:57:17.484Z,8.20
2018-04-24T07:59:45.043Z,5.70
2018-04-24T08:02:12.707Z,4.23
2018-04-24T08:04:40.255Z,5.60
2018-04-24T08:07:09.330Z,5.60
2018-04-24T08:09:36.909Z,4.40
2018-04-24T08:12:04.508Z,4.63
2018-04-24T08:14:32.846Z,4.10
2018-04-24T08:17:00.471Z,4.07
2018-04-24T08:19:28.008Z,5.50
2018-04-24T08:21:56.353Z,3.40
2018-04-24T08:24:23.912Z,9.17
2018-04-24T08:26:51.453Z,5.00
2018-04-24T08:29:19.028Z,4.13
2018-04-24T08:31:47.363Z,4.90
2018-04-24T08:34:14.903Z,6.03
2018-04-24T08:36:42.456Z,9.87
2018-04-24T08:39:10.792Z,5.23
2018-04-24T08:41:38.348Z,5.33
2018-04-24T08:44:05.924Z,3.77
2018-04-24T08:46:34.246Z,5.07
2018-04-24T08:49:02.590Z,5.50
2018-04-24T08:51:30.156Z,7.93
2018-04-24T08:53:57.789Z,3.93
2018-04-24T08:56:25.334Z,5.50
2018-04-24T08:58:53.820Z,6.50
2018-04-24T09:01:21.395Z,6.07
2018-04-24T09:03:48.976Z,3.93
2018-04-24T09:06:16.540Z,7.07
2018-04-24T09:08:44.105Z,6.33
2018-04-24T09:11:12.458Z,5.07
2018-04-24T09:13:40.036Z,5.50
2018-04-24T09:16:07.576Z,7.87
2018-04-24T09:18:35.276Z,7.43
2018-04-24T09:21:03.723Z,4.90
2018-04-24T09:23:31.345Z,6.20
2018-04-24T09:25:58.945Z,5.53
2018-04-24T09:28:26.487Z,7.00
2018-04-24T09:30:54.056Z,5.47
2018-04-24T09:33:21.624Z,4.80
2018-04-24T09:35:49.183Z,5.33
2018-04-24T09:38:16.746Z,6.17
2018-04-24T09:40:44.349Z,8.27
2018-04-24T09:43:11.953Z,7.03
2018-04-24T09:45:39.532Z,7.13
2018-04-24T09:48:07.138Z,6.70
2018-04-24T09:50:34.739Z,6.37
2018-04-24T09:53:02.303Z,6.37
2018-04-24T09:55:29.932Z,8.50
2018-04-24T09:57:57.470Z,9.33
2018-04-24T10:00:30.692Z,8.80
2018-04-24T10:02:58.255Z,7.10
2018-04-24T10:05:25.874Z,6.87
2018-04-24T10:07:54.300Z,5.87
2018-04-24T10:10:21.752Z,6.27
2018-04-24T10:12:49.328Z,5.77
2018-04-24T10:15:16.917Z,5.57
2018-04-24T10:17:44.495Z,6.53
2018-04-24T10:20:12.832Z,6.23
2018-04-24T10:22:40.408Z,6.67
2018-04-24T10:25:07.957Z,4.27
2018-04-24T10:27:35.607Z,8.10
2018-04-24T10:30:03.171Z,7.77
2018-04-24T10:32:30.764Z,6.90
2018-04-24T10:34:58.320Z,7.07
2018-04-24T10:37:25.980Z,7.83
2018-04-24T10:39:53.484Z,10.17
2018-04-24T10:42:21.061Z,7.70
2018-04-24T10:44:48.634Z,8.40
2018-04-24T10:47:17.269Z,8.00
2018-04-24T10:49:44.850Z,5.93
2018-04-24T10:52:12.366Z,5.60
2018-04-24T10:54:40.705Z,5.57
2018-04-24T10:57:08.239Z,7.63
2018-04-24T10:59:35.804Z,5.23
2018-04-24T11:02:03.422Z,8.73
2018-04-24T11:04:30.995Z,7.97
2018-04-24T11:06:59.291Z,5.37
2018-04-24T11:09:26.860Z,6.40
2018-04-24T11:11:54.476Z,5.57
2018-04-24T11:14:21.944Z,5.13
2018-04-24T11:16:50.359Z,6.90
2018-04-24T11:19:17.919Z,7.00
2018-04-24T11:21:45.469Z,7.37
2018-04-24T11:24:13.001Z,6.47
2018-04-24T11:26:41.397Z,7.17
2018-04-24T11:29:09.665Z,5.00
2018-04-24T11:31:37.982Z,7.40
2018-04-24T11:34:05.610Z,7.23
2018-04-24T11:36:33.112Z,8.63
2018-04-24T11:39:00.710Z,6.77
2018-04-24T11:41:29.109Z,4.97
2018-04-24T11:43:56.729Z,5.63
2018-04-24T11:46:24.376Z,5.73
2018-04-24T11:48:51.950Z,4.83
2018-04-24T11:51:19.515Z,5.83
2018-04-24T11:53:47.061Z,8.63
2018-04-24T11:56:14.619Z,5.80
2018-04-24T11:58:42.187Z,3.90
2018-04-24T12:01:09.894Z,3.77
2018-04-24T12:03:38.370Z,5.07
2018-04-24T12:06:06.714Z,4.50
2018-04-24T12:08:34.284Z,7.50
2018-04-24T12:11:01.900Z,6.83
2018-04-24T12:13:29.485Z,5.27
2018-04-24T12:15:57.078Z,6.57
2018-04-24T12:18:24.675Z,4.70
2018-04-24T12:20:52.220Z,7.50
2018-04-24T12:23:19.818Z,5.63
2018-04-24T12:25:47.368Z,4.93
2018-04-24T12:28:14.933Z,5.43
2018-04-24T12:30:42.493Z,6.27
2018-04-24T12:33:10.070Z,6.53
2018-04-24T12:35:37.636Z,8.17
2018-04-24T12:38:05.203Z,6.50
2018-04-24T12:40:32.768Z,5.57
2018-04-24T12:43:00.364Z,5.10
2018-04-24T12:45:27.914Z,5.70
2018-04-24T12:47:56.242Z,5.33
2018-04-24T12:50:23.818Z,7.60
2018-04-24T12:52:51.432Z,5.83
2018-04-24T12:55:19.104Z,7.50
2018-04-24T12:57:46.719Z,5.40
2018-04-24T13:00:14.223Z,5.53
2018-04-24T13:02:41.788Z,6.13
2018-04-24T13:05:09.363Z,6.70
2018-04-24T13:07:36.932Z,5.70
2018-04-24T13:10:04.608Z,7.20
2018-04-24T13:12:32.171Z,7.87
2018-04-24T13:14:59.748Z,7.43
2018-04-24T13:17:27.300Z,9.27
2018-04-24T13:19:54.894Z,6.37
2018-04-24T13:22:22.469Z,7.17
2018-04-24T13:24:50.047Z,9.83
2018-04-24T13:27:17.602Z,7.73
2018-04-24T13:29:45.179Z,7.07
2018-04-24T13:32:12.730Z,7.63
2018-04-24T13:34:40.345Z,7.30
2018-04-24T13:37:08.730Z,9.77
2018-04-24T13:39:36.276Z,8.37
2018-04-24T13:42:04.634Z,8.73
2018-04-24T13:44:32.191Z,9.07
2018-04-24T13:46:59.775Z,9.77
2018-04-24T13:49:28.111Z,13.37
2018-04-24T13:51:55.700Z,9.93
2018-04-24T13:54:23.256Z,8.70
2018-04-24T13:56:50.854Z,8.87
2018-04-24T13:59:19.180Z,9.70
2018-04-24T14:01:46.753Z,7.43
2018-04-24T14:04:14.287Z,8.67
2018-04-24T14:06:41.892Z,10.30
2018-04-24T14:09:10.297Z,7.93
2018-04-24T14:11:37.883Z,8.00
2018-04-24T14:14:05.465Z,9.00
2018-04-24T14:16:33.179Z,10.17
2018-04-24T14:19:00.782Z,10.87
2018-04-24T14:21:28.389Z,12.00
2018-04-24T14:23:55.928Z,8.03
2018-04-24T14:26:23.493Z,8.63
2018-04-24T14:28:52.019Z,12.17
2018-04-24T14:31:19.617Z,9.83
2018-04-24T14:33:47.271Z,10.90
2018-04-24T14:36:14.868Z,7.87
2018-04-24T14:38:43.379Z,12.30
2018-04-24T14:41:10.940Z,8.93
2018-04-24T14:43:38.563Z,8.67
2018-04-24T14:46:06.909Z,8.87
2018-04-24T14:48:34.494Z,11.43
2018-04-24T14:51:02.053Z,9.43
2018-04-24T14:53:29.653Z,15.47
2018-04-24T14:55:57.200Z,10.37
2018-04-24T14:58:24.804Z,10.63
2018-04-24T15:00:52.381Z,7.97
2018-04-24T15:03:20.145Z,9.40
2018-04-24T15:05:47.725Z,9.70
2018-04-24T15:08:16.220Z,8.70
2018-04-24T15:10:44.541Z,9.60
2018-04-24T15:13:12.236Z,9.53
2018-04-24T15:15:39.817Z,11.40
2018-04-24T15:18:08.152Z,9.37
2018-04-24T15:20:35.731Z,8.07
2018-04-24T15:23:03.323Z,8.77
2018-04-24T15:25:31.740Z,10.87
2018-04-24T15:27:59.300Z,8.73
2018-04-24T15:30:26.874Z,7.77
2018-04-24T15:32:54.438Z,8.47
2018-04-24T15:35:22.040Z,8.57
2018-04-24T15:37:50.444Z,7.10
2018-04-24T15:40:18.014Z,9.53
2018-04-24T15:42:45.578Z,8.90
2018-04-24T15:45:13.144Z,7.67
2018-04-24T15:47:40.785Z,7.07
2018-04-24T15:50:08.484Z,7.80
2018-04-24T15:52:36.054Z,8.73
2018-04-24T15:55:03.620Z,9.90
2018-04-24T15:57:31.172Z,11.17
2018-04-24T15:59:58.757Z,6.47
2018-04-24T16:02:27.087Z,7.13
2018-04-24T16:04:54.664Z,7.57
2018-04-24T16:07:22.259Z,8.77
2018-04-24T16:09:50.598Z,10.87
2018-04-24T16:12:18.149Z,7.83
2018-04-24T16:14:45.760Z,9.30
2018-04-24T16:17:13.324Z,9.80
2018-04-24T16:19:41.006Z,8.73
2018-04-24T16:22:08.487Z,10.97
2018-04-24T16:24:36.056Z,8.93
2018-04-24T16:27:03.665Z,9.00
2018-04-24T16:29:32.020Z,9.00
2018-04-24T16:32:00.433Z,7.03
2018-04-24T16:34:28.014Z,7.50
2018-04-24T16:36:55.610Z,9.57
2018-04-24T16:39:23.180Z,10.10
2018-04-24T16:41:50.760Z,8.40
2018-04-24T16:44:19.066Z,7.70
2018-04-24T16:46:46.655Z,10.23
2018-04-24T16:49:14.216Z,10.07
2018-04-24T16:51:41.802Z,10.17
2018-04-24T16:54:09.379Z,11.07
2018-04-24T16:56:37.703Z,9.90
2018-04-24T16:59:05.297Z,10.33
2018-04-24T17:01:32.869Z,9.77
2018-04-24T17:04:00.416Z,16.67
2018-04-24T17:06:27.996Z,9.13
2018-04-24T17:08:56.358Z,8.23
2018-04-24T17:11:24.191Z,9.60
2018-04-24T17:13:51.742Z,8.13
2018-04-24T17:16:19.288Z,9.60
2018-04-24T17:18:46.877Z,7.27
2018-04-24T17:21:14.447Z,8.17
2018-04-24T17:23:42.063Z,10.20
2018-04-24T17:26:09.617Z,8.07
2018-04-24T17:28:37.205Z,9.03
2018-04-24T17:31:04.783Z,11.30
2018-04-24T17:33:32.383Z,10.73
2018-04-24T17:36:00.779Z,10.40
2018-04-24T17:38:28.376Z,9.23
2018-04-24T17:40:56.087Z,8.43
2018-04-24T17:43:23.644Z,10.90
2018-04-24T17:45:52.119Z,11.30
2018-04-24T17:48:20.559Z,13.30
2018-04-24T17:50:48.236Z,11.40
2018-04-24T17:53:15.789Z,12.30
2018-04-24T17:55:43.381Z,11.27
2018-04-24T17:58:10.940Z,13.60
2018-04-24T18:00:39.320Z,10.70
2018-04-24T18:03:06.898Z,11.43
2018-04-24T18:05:35.349Z,13.27
2018-04-24T18:08:02.929Z,10.00
2018-04-24T18:10:31.280Z,11.00
2018-04-24T18:12:58.852Z,13.53
2018-04-24T18:15:26.501Z,10.87
2018-04-24T18:17:54.272Z,14.00
2018-04-24T18:20:21.860Z,9.23
2018-04-24T18:22:50.216Z,11.23
2018-04-24T18:25:17.908Z,14.50
2018-04-24T18:27:46.360Z,12.40
2018-04-24T18:30:13.924Z,11.43
2018-04-24T18:32:41.508Z,13.90
2018-04-24T18:35:09.936Z,11.63
2018-04-24T18:37:37.515Z,11.43
2018-04-24T18:40:05.124Z,12.23
2018-04-24T18:42:32.706Z,12.13
2018-04-24T18:45:00.272Z,12.43
2018-04-24T18:47:27.917Z,8.87
2018-04-24T18:49:56.299Z,11.53
2018-04-24T18:52:23.903Z,9.20
2018-04-24T18:54:51.499Z,10.93
2018-04-24T18:57:19.099Z,11.63
2018-04-24T18:59:46.672Z,11.20
2018-04-24T19:02:14.272Z,11.20
2018-04-24T19:04:41.845Z,11.47
2018-04-24T19:07:09.461Z,11.40
2018-04-24T19:09:37.061Z,12.37
2018-04-24T19:12:05.386Z,12.27
2018-04-24T19:14:33.013Z,13.50
2018-04-24T19:17:00.594Z,13.07
2018-04-24T19:19:28.184Z,14.57
2018-04-24T19:21:55.785Z,11.77
2018-04-24T19:24:28.929Z,10.60
2018-04-24T19:26:56.476Z,11.40
2018-04-24T19:29:24.047Z,13.07
2018-04-24T19:31:57.928Z,11.43
2018-04-24T19:34:25.635Z,11.77
2018-04-24T19:36:53.217Z,12.37
2018-04-24T19:39:26.249Z,13.40
2018-04-24T19:41:53.827Z,16.80
2018-04-24T19:44:21.416Z,17.20
2018-04-24T19:46:49.797Z,13.90
2018-04-24T19:49:23.814Z,10.73
2018-04-24T19:51:51.480Z,12.07
2018-04-24T19:54:19.036Z,10.33
2018-04-24T19:56:47.520Z,15.37
2018-04-24T19:59:15.083Z,11.60
2018-04-24T20:01:42.671Z,13.63
2018-04-24T20:04:10.233Z,11.23
2018-04-24T20:06:37.818Z,11.93
2018-04-24T20:09:07.334Z,11.23
2018-04-24T20:11:34.936Z,13.07
2018-04-24T20:14:02.613Z,9.90
2018-04-24T20:16:30.210Z,12.57
2018-04-24T20:18:57.815Z,10.30
2018-04-24T20:21:26.163Z,49.27
2018-04-24T20:23:53.816Z,42.00
2018-04-24T20:26:21.391Z,41.23
2018-04-24T20:28:48.993Z,12.03
2018-04-24T20:31:16.569Z,12.90
2018-04-24T20:33:44.221Z,11.13
2018-04-24T20:36:11.799Z,10.37
2018-04-24T20:38:39.522Z,10.20
2018-04-24T20:41:07.071Z,11.27
2018-04-24T20:43:35.525Z,11.07
2018-04-24T20:46:03.140Z,11.60
2018-04-24T20:48:30.704Z,12.10
2018-04-24T20:50:58.311Z,11.97
2018-04-24T20:53:25.964Z,11.30
2018-04-24T20:55:53.565Z,12.20
2018-04-24T20:58:21.904Z,11.57
2018-04-24T21:00:49.571Z,10.70
2018-04-24T21:03:17.075Z,12.97
2018-04-24T21:05:44.632Z,11.30
2018-04-24T21:08:12.221Z,11.73
2018-04-24T21:10:39.787Z,11.17
2018-04-24T21:13:07.496Z,12.23
2018-04-24T21:15:34.999Z,12.70
2018-04-24T21:18:02.618Z,15.50
2018-04-24T21:20:30.937Z,11.30
2018-04-24T21:22:58.529Z,11.03
2018-04-24T21:25:26.083Z,11.17
2018-04-24T21:27:53.656Z,10.77
2018-04-24T21:30:21.326Z,12.50
2018-04-24T21:32:49.031Z,15.57
2018-04-24T21:35:16.591Z,10.10
2018-04-24T21:37:44.152Z,12.77
2018-04-24T21:40:11.748Z,12.33
2018-04-24T21:42:39.312Z,9.97
2018-04-24T21:45:06.891Z,13.20
2018-04-24T21:47:34.455Z,11.70
2018-04-24T21:50:02.052Z,12.93
2018-04-24T21:52:29.600Z,11.93
2018-04-24T21:54:57.173Z,9.87
2018-04-24T21:57:24.838Z,13.40
2018-04-24T21:59:52.523Z,14.07
2018-04-24T22:02:20.152Z,11.13
2018-04-24T22:04:47.735Z,14.10
2018-04-24T22:07:15.331Z,13.80
2018-04-24T22:09:42.935Z,12.20
2018-04-24T22:12:10.503Z,13.13
2018-04-24T22:14:38.068Z,13.17
2018-04-24T22:17:05.649Z,13.47
2018-04-24T22:19:33.235Z,12.27
2018-04-24T22:22:00.804Z,14.40
2018-04-24T22:24:29.161Z,10.30
2018-04-24T22:26:56.709Z,12.03
2018-04-24T22:29:24.267Z,14.13
2018-04-24T22:31:51.938Z,11.70
2018-04-24T22:34:19.500Z,13.83
2018-04-24T22:36:47.120Z,14.27
2018-04-24T22:39:14.705Z,13.63
2018-04-24T22:41:42.303Z,14.37
2018-04-24T22:44:10.637Z,12.30
2018-04-24T22:46:38.209Z,11.97
2018-04-24T22:49:05.781Z,12.70
2018-04-24T22:51:33.383Z,9.17
2018-04-24T22:54:00.952Z,12.23
2018-04-24T22:56:28.522Z,11.03
2018-04-24T22:58:56.104Z,11.17
2018-04-24T23:01:23.667Z,10.50
2018-04-24T23:03:51.225Z,9.77
2018-04-24T23:06:18.838Z,10.10
2018-04-24T23:08:46.414Z,8.90
2018-04-24T23:11:25.933Z,10.83
2018-04-24T23:14:06.080Z,10.43
2018-04-24T23:16:45.442Z,8.37
2018-04-24T23:19:25.691Z,11.13
2018-04-24T23:21:52.744Z,9.97
2018-04-24T23:24:20.348Z,10.20
2018-04-24T23:26:47.889Z,8.27
2018-04-24T23:29:15.623Z,8.50
2018-04-24T23:31:43.936Z,9.30
2018-04-24T23:34:11.525Z,10.43
2018-04-24T23:36:39.071Z,7.17
2018-04-24T23:39:06.628Z,7.17
2018-04-24T23:41:34.196Z,8.27
2018-04-24T23:44:01.752Z,9.03
2018-04-24T23:46:29.384Z,7.77
2018-04-24T23:48:57.108Z,6.37
2018-04-24T23:51:24.669Z,8.80
2018-04-24T23:53:53.016Z,9.10
2018-04-24T23:56:20.583Z,6.50
2018-04-24T23:58:48.160Z,7.90
